createdAt,value
2022-10-05T00:01:42.284Z,100.00
2022-10-05T00:09:19.009Z,100.00
2022-10-05T00:16:55.273Z,100.00
2022-10-05T00:24:29.846Z,100.00
2022-10-05T00:32:05.112Z,100.00
2022-10-05T00:39:40.375Z,100.00
2022-10-05T00:47:35.708Z,100.00
2022-10-05T00:55:20.622Z,100.00
2022-10-05T01:03:03.563Z,100.00
2022-10-05T01:10:43.179Z,100.00
2022-10-05T01:18:23.239Z,100.00
2022-10-05T01:26:08.916Z,100.00
2022-10-05T01:33:50.073Z,100.00
2022-10-05T01:41:35.024Z,100.00
2022-10-05T01:49:36.739Z,100.00
2022-10-05T01:57:21.679Z,100.00
2022-10-05T02:05:04.361Z,100.00
2022-10-05T02:12:39.670Z,100.00
2022-10-05T02:20:20.626Z,100.00
2022-10-05T02:27:59.213Z,100.00
2022-10-05T02:35:34.776Z,100.00
2022-10-05T02:43:20.731Z,100.00
2022-10-05T02:51:04.635Z,100.00
2022-10-05T02:58:47.025Z,100.00
2022-10-05T03:06:26.994Z,100.00
2022-10-05T03:14:09.483Z,100.00
2022-10-05T03:21:58.853Z,100.00
2022-10-05T03:29:41.455Z,100.00
2022-10-05T03:37:23.966Z,100.00
2022-10-05T03:45:03.558Z,100.00
2022-10-05T03:52:44.138Z,100.00
2022-10-05T04:00:23.212Z,100.00
2022-10-05T04:08:02.912Z,100.00
2022-10-05T04:15:42.553Z,100.00
2022-10-05T04:23:29.275Z,100.00
2022-10-05T04:31:06.359Z,100.00
2022-10-05T04:38:53.936Z,100.00
2022-10-05T04:46:41.293Z,100.00
2022-10-05T04:54:25.342Z,100.00
2022-10-05T05:02:06.768Z,100.00
2022-10-05T05:10:16.280Z,100.00
2022-10-05T05:18:08.018Z,100.00
2022-10-05T05:25:49.408Z,100.00
2022-10-05T05:33:27.338Z,100.00
2022-10-05T05:41:09.609Z,100.00
2022-10-05T05:48:45.092Z,100.00
2022-10-05T05:56:25.423Z,100.00
2022-10-05T06:04:03.036Z,100.00
2022-10-05T06:11:43.152Z,100.00
2022-10-05T06:19:19.663Z,100.00
2022-10-05T06:27:22.886Z,100.00
2022-10-05T06:35:07.054Z,100.00
2022-10-05T06:43:06.700Z,100.00
2022-10-05T06:50:45.474Z,100.00
2022-10-05T06:58:32.695Z,100.00
2022-10-05T07:06:16.431Z,100.00
2022-10-05T07:14:13.409Z,100.00
2022-10-05T07:22:01.788Z,100.00
2022-10-05T07:29:42.997Z,100.00
2022-10-05T07:37:38.790Z,100.00
2022-10-05T07:45:29.806Z,100.00
2022-10-05T07:53:07.470Z,100.00
2022-10-05T08:00:58.767Z,100.00
2022-10-05T08:08:41.082Z,100.00
2022-10-05T08:16:17.677Z,100.00
2022-10-05T08:23:56.731Z,100.00
2022-10-05T08:31:34.673Z,100.00
2022-10-05T08:39:16.316Z,100.00
2022-10-05T08:47:16.319Z,100.00
2022-10-05T08:55:16.840Z,100.00
2022-10-05T09:03:16.455Z,100.00
2022-10-05T09:11:07.016Z,100.00
2022-10-05T09:19:08.837Z,100.00
2022-10-05T09:26:44.776Z,100.00
2022-10-05T09:34:49.968Z,100.00
2022-10-05T09:43:00.098Z,100.00
2022-10-05T09:51:03.534Z,100.00
2022-10-05T09:59:10.271Z,98.76
2022-10-05T10:07:03.660Z,100.00
2022-10-05T10:15:12.014Z,95.03
2022-10-05T10:23:13.396Z,95.31
2022-10-05T10:31:01.961Z,94.94
2022-10-05T10:38:55.103Z,94.77
2022-10-05T10:46:37.789Z,94.14
2022-10-05T10:54:42.852Z,95.00
2022-10-05T11:02:39.275Z,95.11
2022-10-05T11:10:34.959Z,92.68
2022-10-05T11:18:20.397Z,91.08
2022-10-05T11:25:58.772Z,90.88
2022-10-05T11:34:06.809Z,89.16
2022-10-05T11:42:09.640Z,84.37
2022-10-05T11:49:51.453Z,82.53
2022-10-05T11:57:33.798Z,81.56
2022-10-05T12:05:18.248Z,82.33
2022-10-05T12:13:03.036Z,83.48
2022-10-05T12:20:45.973Z,82.18
2022-10-05T12:28:25.705Z,80.66
2022-10-05T12:36:04.967Z,77.63
2022-10-05T12:43:54.498Z,76.79
2022-10-05T12:51:39.234Z,75.36
2022-10-05T12:59:24.555Z,74.26
2022-10-05T13:07:24.503Z,71.17
2022-10-05T13:15:05.649Z,72.79
2022-10-05T13:22:44.873Z,71.72
2022-10-05T13:30:20.910Z,69.84
2022-10-05T13:38:04.377Z,70.48
2022-10-05T13:45:45.143Z,69.52
2022-10-05T13:53:29.466Z,68.39
2022-10-05T14:01:08.202Z,68.86
2022-10-05T14:08:52.090Z,70.67
2022-10-05T14:16:26.480Z,71.10
2022-10-05T14:24:43.168Z,72.45
2022-10-05T14:32:18.862Z,71.72
2022-10-05T14:39:58.704Z,70.87
2022-10-05T14:47:39.656Z,70.62
2022-10-05T14:55:35.973Z,71.13
2022-10-05T15:03:33.416Z,71.48
2022-10-05T15:11:11.598Z,72.86
2022-10-05T15:18:52.970Z,72.89
2022-10-05T15:26:41.922Z,74.36
2022-10-05T15:34:22.298Z,74.59
2022-10-05T15:42:02.021Z,73.36
2022-10-05T15:49:42.712Z,73.16
2022-10-05T15:57:26.246Z,73.85
2022-10-05T16:05:08.427Z,73.55
2022-10-05T16:12:53.754Z,74.91
2022-10-05T16:20:37.334Z,76.16
2022-10-05T16:28:29.139Z,77.56
2022-10-05T16:36:17.811Z,79.12
2022-10-05T16:44:04.091Z,81.22
2022-10-05T16:51:50.768Z,84.04
2022-10-05T17:00:01.745Z,86.04
2022-10-05T17:07:53.082Z,89.19
2022-10-05T17:15:55.252Z,91.38
2022-10-05T17:23:53.522Z,94.13
2022-10-05T17:31:32.775Z,97.23
2022-10-05T17:39:15.267Z,99.61
2022-10-05T17:46:52.679Z,100.00
2022-10-05T17:54:48.162Z,100.00
2022-10-05T18:02:26.941Z,100.00
2022-10-05T18:10:17.135Z,100.00
2022-10-05T18:17:56.138Z,100.00
2022-10-05T18:25:35.739Z,100.00
2022-10-05T18:33:30.936Z,100.00
2022-10-05T18:41:10.072Z,100.00
2022-10-05T18:48:56.796Z,100.00
2022-10-05T18:56:38.031Z,100.00
2022-10-05T19:04:26.470Z,100.00
2022-10-05T19:12:08.144Z,100.00
2022-10-05T19:19:54.132Z,100.00
2022-10-05T19:27:40.201Z,100.00
2022-10-05T19:35:25.618Z,100.00
2022-10-05T19:43:08.011Z,100.00
2022-10-05T19:50:54.238Z,100.00
2022-10-05T19:58:30.038Z,100.00
2022-10-05T20:06:07.496Z,100.00
2022-10-05T20:13:42.868Z,100.00
2022-10-05T20:21:44.440Z,100.00
2022-10-05T20:29:18.140Z,100.00
2022-10-05T20:36:53.435Z,100.00
2022-10-05T20:44:27.616Z,100.00
2022-10-05T20:52:03.510Z,100.00
2022-10-05T20:59:37.563Z,100.00
2022-10-05T21:07:12.709Z,100.00
2022-10-05T21:14:47.505Z,100.00
2022-10-05T21:22:22.730Z,100.00
2022-10-05T21:29:56.408Z,100.00
2022-10-05T21:37:31.654Z,100.00
2022-10-05T21:45:06.279Z,100.00
2022-10-05T21:52:41.316Z,100.00
2022-10-05T22:00:16.405Z,100.00
2022-10-05T22:07:51.751Z,100.00
2022-10-05T22:15:25.455Z,100.00
2022-10-05T22:23:00.563Z,100.00
2022-10-05T22:30:34.631Z,100.00
2022-10-05T22:38:09.930Z,100.00
2022-10-05T22:45:43.993Z,100.00
2022-10-05T22:53:19.399Z,100.00
2022-10-05T23:00:58.317Z,100.00
2022-10-05T23:08:35.386Z,100.00
2022-10-05T23:16:10.984Z,100.00
2022-10-05T23:23:49.212Z,100.00
2022-10-05T23:31:25.214Z,100.00
2022-10-05T23:39:00.633Z,100.00
2022-10-05T23:46:34.286Z,100.00
2022-10-05T23:54:09.470Z,100.00
